Time;durP1;ratioP1;P1;durP2;ratioP2;P2;SDS_P1;SDS_P2;PMS_P1;PMS_P2;Temp;Humidity;BMP_temperature;BMP_pressure;BME280_temperature;BME280_humidity;BME280_pressure;Samples;Min_cycle;Max_cycle;Signal;HPM_P1;HPM_P2
2023/09/19 00:02:36;;;;;;;20.30;18.00;;;;;;;18.93;76.76;99448.54;133525;1301;22477;-76
2023/09/19 00:05:44;;;;;;;21.70;19.10;;;;;;;18.89;76.99;99445.55;133516;1303;22241;-75
2023/09/19 00:09:37;;;;;;;23.30;17.90;;;;;;;18.85;77.22;99439.55;133495;1301;22217;-75
2023/09/19 00:13:06;;;;;;;20.60;18.40;;;;;;;18.80;77.41;99433.98;133530;1309;22484;-75
2023/09/19 00:16:45;;;;;;;19.70;17.80;;;;;;;18.74;77.41;99435.66;133506;1302;22443;-75
2023/09/19 00:19:51;;;;;;;18.60;16.70;;;;;;;18.69;77.74;99442.89;133476;1300;22271;-75
2023/09/19 00:23:15;;;;;;;21.50;18.30;;;;;;;18.66;77.86;99445.84;133514;1301;23151;-75
2023/09/19 00:26:48;;;;;;;21.70;17.30;;;;;;;18.61;77.83;99450.36;133493;1301;23210;-75
2023/09/19 00:30:00;;;;;;;21.10;18.80;;;;;;;18.56;77.95;99450.95;133448;1309;22516;-75
2023/09/19 00:33:07;;;;;;;21.60;19.30;;;;;;;18.50;78.06;99452.05;133511;1306;22508;-76
2023/09/19 00:36:39;;;;;;;;;;;;;;;;;;;;;
2023/09/19 00:40:23;;;;;;;20.70;18.50;;;;;;;18.40;78.66;99448.35;133504;1302;22527;-75
2023/09/19 00:47:28;;;;;;;21.10;18.00;;;;;;;18.40;79.21;99450.28;133377;1301;24238;-75
2023/09/19 00:51:17;;;;;;;;;;;;;;;;;;;;;
2023/09/19 00:54:57;;;;;;;20.40;17.60;;;;;;;18.44;79.53;99452.19;133269;1305;22490;-75
2023/09/19 00:57:58;;;;;;;21.60;18.10;;;;;;;18.47;79.67;99451.56;133508;1301;22269;-75
2023/09/19 01:01:44;;;;;;;21.70;17.90;;;;;;;18.51;79.69;99449.60;133498;1300;23328;-75
2023/09/19 01:05:09;;;;;;;15.00;12.70;;;;;;;18.53;79.85;99443.73;133472;1301;22507;-75
2023/09/19 01:08:40;;;;;;;11.50;8.80;;;;;;;18.51;79.89;99441.61;133468;1303;23056;-76
2023/09/19 01:12:05;;;;;;;11.80;6.50;;;;;;;18.50;80.02;99445.77;133513;1301;23062;-74
2023/09/19 01:15:56;;;;;;;10.70;5.90;;;;;;;18.51;80.14;99448.43;133341;1302;22457;-75
2023/09/19 01:19:34;;;;;;;7.60;5.60;;;;;;;18.50;80.28;99443.45;133524;1305;22465;-75
2023/09/19 01:23:20;;;;;;;;;;;;;;;;;;;;;
2023/09/19 01:27:00;;;;;;;6.10;4.40;;;;;;;18.51;80.70;99444.17;133500;1301;22154;-74
2023/09/19 01:31:00;;;;;;;7.10;3.70;;;;;;;18.49;80.93;99447.73;133495;1302;22499;-75
2023/09/19 01:38:27;;;;;;;7.20;3.70;;;;;;;18.47;81.11;99449.67;133275;1304;22483;-75
2023/09/19 01:42:26;;;;;;;6.30;3.40;;;;;;;18.45;81.34;99448.06;133495;1301;23516;-74
2023/09/19 01:45:56;;;;;;;5.80;3.30;;;;;;;18.46;81.29;99448.10;133504;1305;22294;-76
2023/09/19 01:49:20;;;;;;;6.50;3.50;;;;;;;18.49;81.25;99443.75;133492;1301;22388;-75
2023/09/19 01:52:40;;;;;;;;;;;;;;;;;;;;;
2023/09/19 01:55:49;;;;;;;6.70;3.40;;;;;;;18.50;81.20;99433.52;133472;1303;22395;-75
2023/09/19 01:59:04;;;;;;;7.10;3.00;;;;;;;18.54;81.37;99429.95;133459;1304;22398;-75
2023/09/19 02:02:12;;;;;;;8.10;3.80;;;;;;;18.56;81.38;99432.05;133527;1304;22487;-74
2023/09/19 02:05:51;;;;;;;5.00;3.10;;;;;;;18.59;81.28;99439.20;133516;1303;22433;-75
2023/09/19 02:08:56;;;;;;;7.50;3.30;;;;;;;18.60;81.33;99440.45;133253;1305;22521;-74
2023/09/19 02:12:22;;;;;;;7.70;3.50;;;;;;;18.57;81.32;99446.42;133490;1301;22464;-74
2023/09/19 02:20:19;;;;;;;4.20;2.70;;;;;;;18.50;81.42;99452.16;133286;1301;22432;-75
2023/09/19 02:23:38;;;;;;;5.20;3.00;;;;;;;18.48;81.51;99450.84;133516;1306;22358;-75
2023/09/19 02:27:40;;;;;;;7.00;2.90;;;;;;;18.48;81.65;99449.81;133488;1304;22554;-74
2023/09/19 02:34:49;;;;;;;;;;;;;;;;;;;;;
2023/09/19 02:38:28;;;;;;;;;;;;;;;;;;;;;
2023/09/19 02:41:49;;;;;;;6.00;2.80;;;;;;;18.36;82.50;99446.31;133495;1303;22463;-75
2023/09/19 02:45:25;;;;;;;;;;;;;;;;;;;;;
2023/09/19 02:48:52;;;;;;;6.10;3.40;;;;;;;18.37;82.92;99465.73;133479;1303;22515;-75
2023/09/19 02:52:25;;;;;;;9.00;2.90;;;;;;;18.35;83.20;99482.88;133520;1301;22457;-74
2023/09/19 02:59:24;;;;;;;7.80;3.60;;;;;;;18.20;83.95;99450.02;133474;1301;22279;-73
2023/09/19 03:02:32;;;;;;;6.60;2.80;;;;;;;18.10;84.30;99443.16;133523;1302;23360;-74
2023/09/19 03:05:38;;;;;;;7.90;3.20;;;;;;;18.09;84.64;99444.30;133531;1301;23380;-75
2023/09/19 03:08:41;;;;;;;7.00;3.50;;;;;;;18.10;85.03;99442.30;133453;1302;23141;-75
2023/09/19 03:11:46;;;;;;;7.00;3.10;;;;;;;18.10;84.95;99442.22;133318;1301;23042;-75
2023/09/19 03:14:48;;;;;;;7.40;3.50;;;;;;;18.07;85.01;99441.36;133429;1301;23179;-75
2023/09/19 03:17:54;;;;;;;8.80;3.30;;;;;;;18.02;85.18;99441.48;133438;1301;23233;-74
2023/09/19 03:21:13;;;;;;;13.00;3.40;;;;;;;17.96;85.54;99440.43;133485;1302;22218;-74
2023/09/19 03:24:14;;;;;;;14.90;3.90;;;;;;;17.91;85.62;99436.84;133513;1304;22378;-75
2023/09/19 03:27:18;;;;;;;7.40;3.50;;;;;;;17.86;85.91;99433.60;133375;1302;22445;-75
2023/09/19 03:30:42;;;;;;;7.20;3.30;;;;;;;17.82;86.16;99436.52;133524;1302;22517;-75
2023/09/19 03:33:45;;;;;;;6.50;3.60;;;;;;;17.82;86.46;99437.50;133321;1306;22532;-76
2023/09/19 03:36:49;;;;;;;8.70;3.20;;;;;;;17.82;86.61;99429.34;133516;1300;22394;-74
2023/09/19 03:39:50;;;;;;;8.90;3.40;;;;;;;17.82;86.64;99428.55;133479;1303;24778;-74
2023/09/19 03:42:56;;;;;;;11.10;3.40;;;;;;;17.81;86.85;99426.88;133511;1302;22376;-75
2023/09/19 03:46:09;;;;;;;10.50;3.10;;;;;;;17.82;87.05;99428.71;133515;1303;22220;-73
2023/09/19 03:49:12;;;;;;;7.50;3.10;;;;;;;17.79;87.03;99425.41;133311;1303;23434;-74
2023/09/19 03:52:19;;;;;;;6.30;3.40;;;;;;;17.74;86.75;99423.94;133448;1307;23220;-73
2023/09/19 03:56:06;;;;;;;7.20;2.90;;;;;;;17.72;86.99;99430.54;133517;1300;22428;-74
2023/09/19 03:59:09;;;;;;;8.10;3.20;;;;;;;17.72;87.35;99431.56;133389;1297;22382;-73
2023/09/19 04:02:22;;;;;;;7.20;3.30;;;;;;;17.72;87.35;99432.27;133507;1301;22857;-74
2023/09/19 04:05:48;;;;;;;9.30;3.90;;;;;;;17.72;87.42;99430.38;133368;1301;22386;-73
2023/09/19 04:08:49;;;;;;;6.10;3.10;;;;;;;17.72;87.62;99432.69;133473;1300;22389;-73
2023/09/19 04:11:50;;;;;;;7.90;3.50;;;;;;;17.71;87.66;99429.27;133488;1301;22480;-73
2023/09/19 04:14:52;;;;;;;8.30;3.30;;;;;;;17.69;87.84;99433.27;133334;1303;22492;-74
2023/09/19 04:17:56;;;;;;;8.40;4.00;;;;;;;17.69;88.03;99439.73;133488;1300;22487;-73
2023/09/19 04:21:07;;;;;;;9.40;3.50;;;;;;;17.69;88.25;99440.28;133267;1304;22289;-73
2023/09/19 04:24:43;;;;;;;5.10;3.40;;;;;;;17.68;88.34;99441.45;133537;1300;23252;-73
2023/09/19 04:27:57;;;;;;;8.80;3.50;;;;;;;17.66;88.47;99444.61;133430;1301;22983;-73
2023/09/19 04:31:01;;;;;;;5.10;3.40;;;;;;;17.65;88.62;99448.17;133523;1302;22382;-73
2023/09/19 04:34:36;;;;;;;;;;;;;;;;;;;;;
2023/09/19 04:38:06;;;;;;;7.70;3.50;;;;;;;17.59;88.74;99447.98;133422;1302;23063;-73
2023/09/19 04:41:28;;;;;;;7.30;3.70;;;;;;;17.59;88.98;99437.71;133184;1302;22346;-73
2023/09/19 04:44:31;;;;;;;7.00;3.40;;;;;;;17.58;89.16;99436.52;133493;1301;23215;-76
2023/09/19 04:48:02;;;;;;;9.00;3.50;;;;;;;17.58;89.14;99439.58;133434;1301;22463;-74
2023/09/19 04:51:33;;;;;;;;;;;;;;;;;;;;;
2023/09/19 04:54:50;;;;;;;5.50;3.40;;;;;;;17.51;89.37;99449.42;133435;1303;22269;-76
2023/09/19 04:59:05;;;;;;;6.70;3.20;;;;;;;17.48;89.59;99451.98;133533;1303;22944;-77
2023/09/19 05:02:04;;;;;;;5.90;3.50;;;;;;;17.47;89.70;99453.52;133306;1301;22168;-74
2023/09/19 05:05:25;;;;;;;;;;;;;;;;;;;;;
2023/09/19 05:09:09;;;;;;;8.50;3.60;;;;;;;17.46;89.99;99458.67;133474;1300;23068;-77
2023/09/19 05:12:41;;;;;;;8.40;4.00;;;;;;;17.47;90.15;99455.70;133372;1301;22964;-74
2023/09/19 05:15:50;;;;;;;5.70;3.60;;;;;;;17.48;90.30;99460.88;133493;1301;22329;-76
2023/09/19 05:19:11;;;;;;;7.20;3.90;;;;;;;17.50;90.56;99463.98;133420;1301;22376;-80
2023/09/19 05:23:37;;;;;;;6.60;3.60;;;;;;;17.54;90.70;99467.77;133442;1302;22457;-81
2023/09/19 05:26:47;;;;;;;11.60;5.10;;;;;;;17.59;90.96;99473.77;133316;1302;22425;-73
2023/09/19 05:30:04;;;;;;;;;;;;;;;;;;;;;
2023/09/19 05:33:35;;;;;;;8.20;4.40;;;;;;;17.85;91.43;99467.59;133521;1301;22482;-73
2023/09/19 05:36:39;;;;;;;8.50;4.50;;;;;;;17.99;91.16;99469.27;133522;1301;22438;-74
2023/09/19 05:40:04;;;;;;;13.40;5.10;;;;;;;18.03;90.76;99467.52;133350;1303;23083;-73
2023/09/19 05:43:32;;;;;;;7.20;4.40;;;;;;;18.09;90.80;99473.13;133517;1293;22322;-73
2023/09/19 05:46:54;;;;;;;10.20;5.00;;;;;;;18.16;90.76;99479.52;133398;1303;22460;-73
2023/09/19 05:50:07;;;;;;;;;;;;;;;;;;;;;
2023/09/19 05:53:38;;;;;;;10.50;4.50;;;;;;;18.28;90.49;99484.48;133329;1301;22257;-72
2023/09/19 06:04:15;;;;;;;8.90;4.50;;;;;;;18.56;90.63;99505.33;133370;1301;23053;-76
2023/09/19 06:08:16;;;;;;;6.10;4.00;;;;;;;18.83;90.30;99507.61;133513;1301;22456;-88
2023/09/19 06:11:54;;;;;;;;;;;;;;;;;;;;;
2023/09/19 06:15:33;;;;;;;5.90;3.50;;;;;;;18.84;89.51;99514.08;133505;1307;22402;-86
2023/09/19 06:19:32;;;;;;;;;;;;;;;;;;;;;
2023/09/19 06:23:10;;;;;;;;;;;;;;;;;;;;;
2023/09/19 06:27:12;;;;;;;;;;;;;;;;;;;;;
2023/09/19 06:31:02;;;;;;;7.40;3.50;;;;;;;19.31;88.85;99521.90;133410;1302;22653;-83
2023/09/19 06:34:59;;;;;;;7.50;3.30;;;;;;;19.34;88.68;99523.58;133502;1301;22451;-87
2023/09/19 06:38:15;;;;;;;;;;;;;;;;;;;;;
2023/09/19 06:45:23;;;;;;;6.00;3.20;;;;;;;19.41;88.15;99545.89;133307;1304;22514;-85
2023/09/19 06:49:10;;;;;;;11.00;3.60;;;;;;;19.39;87.87;99546.02;133506;1301;23057;-85
2023/09/19 06:53:01;;;;;;;;;;;;;;;;;;;;;
2023/09/19 06:56:57;;;;;;;;;;;;;;;;;;;;;
2023/09/19 07:09:27;;;;;;;7.60;2.80;;;;;;;19.17;87.31;99567.93;133293;1301;23377;-86
2023/09/19 07:13:50;;;;;;;5.50;2.80;;;;;;;19.13;87.38;99576.77;133356;1301;23651;-84
2023/09/19 07:26:31;;;;;;;7.10;2.60;;;;;;;19.18;86.93;99590.87;133359;1309;22546;-85
2023/09/19 07:30:39;;;;;;;;;;;;;;;;;;;;;
2023/09/19 07:34:13;;;;;;;5.70;2.70;;;;;;;19.59;86.67;99591.48;133359;1307;23338;-86
2023/09/19 07:37:18;;;;;;;6.50;2.60;;;;;;;19.87;85.87;99597.24;133441;1302;22400;-84
2023/09/19 07:40:20;;;;;;;5.10;2.30;;;;;;;20.12;84.74;99601.38;133275;1303;22471;-83
2023/09/19 07:51:33;;;;;;;6.70;2.60;;;;;;;20.10;82.18;99608.59;133482;1302;22399;-87
2023/09/19 07:59:42;;;;;;;5.30;2.30;;;;;;;19.79;81.12;99618.41;133284;1303;23043;-86
2023/09/19 08:03:14;;;;;;;;;;;;;;;;;;;;;
2023/09/19 08:06:39;;;;;;;6.70;2.50;;;;;;;19.55;81.06;99624.42;133517;1301;22408;-85
2023/09/19 08:09:46;;;;;;;4.00;2.50;;;;;;;19.53;81.21;99626.53;133519;1305;22442;-79
2023/09/19 08:13:14;;;;;;;6.40;2.90;;;;;;;19.59;81.30;99629.02;133413;1303;22389;-83
2023/09/19 08:16:47;;;;;;;4.90;2.60;;;;;;;19.60;81.26;99634.73;133514;1300;22400;-86
2023/09/19 08:20:39;;;;;;;5.50;2.70;;;;;;;19.63;81.17;99633.57;133456;1301;22543;-84
2023/09/19 08:23:25;;;;;;;3.80;2.50;;;;;;;19.67;81.18;99637.71;133402;1302;22505;-84
2023/09/19 08:27:09;;;;;;;3.70;2.10;;;;;;;19.67;80.96;99639.83;133523;1297;22436;-84
2023/09/19 08:30:27;;;;;;;2.10;1.90;;;;;;;19.65;80.87;99637.25;133402;1301;22407;-86
2023/09/19 08:38:26;;;;;;;3.80;2.10;;;;;;;19.59;80.74;99639.03;133210;1309;22418;-85
2023/09/19 08:42:17;;;;;;;;;;;;;;;;;;;;;
2023/09/19 08:45:39;;;;;;;5.20;2.50;;;;;;;19.60;80.78;99648.63;133298;1300;22441;-84
2023/09/19 08:49:30;;;;;;;;;;;;;;;;;;;;;
2023/09/19 08:52:57;;;;;;;4.20;1.90;;;;;;;19.53;80.45;99661.39;133502;1301;22320;-85
2023/09/19 08:56:13;;;;;;;5.50;2.10;;;;;;;19.46;79.89;99665.66;133428;1304;22427;-84
2023/09/19 08:59:36;;;;;;;;;;;;;;;;;;;;;
2023/09/19 09:03:03;;;;;;;6.50;2.50;;;;;;;19.42;79.57;99667.67;133503;1301;22421;-85
2023/09/19 09:10:24;;;;;;;4.00;2.70;;;;;;;19.45;79.49;99669.52;133233;1301;22513;-83
2023/09/19 09:14:01;;;;;;;;;;;;;;;;;;;;;
2023/09/19 09:18:38;;;;;;;5.40;2.80;;;;;;;19.53;79.26;99677.48;133480;1301;22400;-84
2023/09/19 09:21:21;;;;;;;5.40;2.80;;;;;;;19.56;79.35;99687.61;133117;1302;22983;-83
2023/09/19 09:24:53;;;;;;;4.30;2.50;;;;;;;19.58;79.40;99691.80;133464;1301;23079;-85
2023/09/19 09:29:26;;;;;;;3.50;2.20;;;;;;;19.61;79.47;99693.96;133449;1302;23213;-84
2023/09/19 09:38:08;;;;;;;5.20;2.60;;;;;;;19.75;78.80;99700.28;132930;1301;22528;-82
2023/09/19 09:41:38;;;;;;;;;;;;;;;;;;;;;
2023/09/19 09:53:25;;;;;;;7.50;1.90;;;;;;;20.64;76.98;99717.73;133544;1305;22663;-82
2023/09/19 09:57:45;;;;;;;2.90;1.90;;;;;;;20.98;76.26;99728.96;133355;1303;22441;-92
2023/09/19 10:01:26;;;;;;;7.60;2.10;;;;;;;21.08;74.95;99731.73;133317;1303;22380;-84
2023/09/19 10:04:44;;;;;;;5.00;2.30;;;;;;;21.15;75.23;99732.42;133487;1304;22446;-76
2023/09/19 10:09:05;;;;;;;5.40;2.60;;;;;;;21.43;75.60;99732.48;133496;1301;23085;-73
2023/09/19 10:12:07;;;;;;;3.70;2.10;;;;;;;21.76;74.64;99730.75;133468;1302;23078;-72
2023/09/19 10:15:31;;;;;;;;;;;;;;;;;;;;;
2023/09/19 10:18:53;;;;;;;;;;;;;;;;;;;;;
2023/09/19 10:22:28;;;;;;;3.90;1.90;;;;;;;21.59;72.32;99743.79;133496;1302;23378;-75
2023/09/19 10:25:58;;;;;;;4.00;2.00;;;;;;;21.44;71.99;99745.67;133476;1303;23137;-73
2023/09/19 10:29:59;;;;;;;;;;;;;;;;;;;;;
2023/09/19 10:34:26;;;;;;;3.30;2.30;;;;;;;21.28;72.33;99749.45;133505;1303;22379;-73
2023/09/19 10:37:51;;;;;;;5.10;2.30;;;;;;;21.29;72.35;99756.05;133275;1302;22380;-73
2023/09/19 10:41:39;;;;;;;3.00;1.80;;;;;;;21.42;72.10;99757.84;133532;1301;22506;-71
2023/09/19 10:45:18;;;;;;;;;;;;;;;;;;;;;
2023/09/19 10:48:48;;;;;;;2.90;1.80;;;;;;;21.41;70.85;99760.69;133447;1302;23326;-72
2023/09/19 10:52:14;;;;;;;;;;;;;;;;;;;;;
2023/09/19 10:55:23;;;;;;;6.60;2.00;;;;;;;21.28;70.76;99768.45;133327;1301;22508;-72
2023/09/19 10:58:39;;;;;;;4.30;2.00;;;;;;;21.15;70.51;99773.04;133428;1302;22934;-72
2023/09/19 11:02:46;;;;;;;3.00;1.70;;;;;;;21.16;71.19;99768.50;133426;1301;23216;-72
2023/09/19 11:06:21;;;;;;;4.00;1.90;;;;;;;21.47;70.99;99758.79;133193;1302;22615;-72
2023/09/19 11:13:40;;;;;;;;;;;;;;;;;;;;;
2023/09/19 11:17:05;;;;;;;;;;;;;;;21.91;69.21;99753.94;133409;1300;22477;-74
2023/09/19 11:20:41;;;;;;;3.40;1.70;;;;;;;22.10;68.38;99755.65;133229;1304;23245;-73
2023/09/19 11:24:37;;;;;;;4.20;2.00;;;;;;;22.08;67.82;99765.89;133226;1304;22298;-72
2023/09/19 11:28:05;;;;;;;3.90;1.90;;;;;;;21.91;67.52;99765.46;133196;1303;22739;-74
2023/09/19 11:31:44;;;;;;;3.90;1.50;;;;;;;21.67;67.45;99769.77;133210;1303;22342;-75
2023/09/19 11:35:07;;;;;;;3.80;1.60;;;;;;;21.65;67.37;99768.50;133221;1304;23109;-77
2023/09/19 11:38:15;;;;;;;2.50;1.70;;;;;;;22.01;67.41;99763.21;133208;1303;23667;-72
2023/09/19 11:41:45;;;;;;;4.90;1.60;;;;;;;22.58;67.11;99758.61;133197;1303;22388;-73
2023/09/19 11:45:09;;;;;;;2.40;1.70;;;;;;;22.90;65.36;99757.69;133208;1304;22563;-71
2023/09/19 11:48:18;;;;;;;4.50;1.50;;;;;;;22.92;61.97;99762.42;133214;1303;23183;-75
2023/09/19 11:51:27;;;;;;;2.40;1.60;;;;;;;22.71;60.74;99761.44;133208;1303;23261;-78
2023/09/19 11:54:36;;;;;;;5.20;1.60;;;;;;;22.54;60.13;99768.02;133113;1305;22283;-73
2023/09/19 11:57:53;;;;;;;;;;;;;;;;;;;;;
2023/09/19 12:00:58;;;;;;;5.00;1.60;;;;;;;22.58;60.05;99769.10;133184;1303;24454;-73
2023/09/19 12:04:01;;;;;;;1.40;1.30;;;;;;;22.62;60.03;99772.77;133203;1302;22312;-74
2023/09/19 12:07:16;;;;;;;2.70;1.90;;;;;;;22.59;59.41;99773.27;133045;1304;22458;-73
2023/09/19 12:10:52;;;;;;;;;;;;;;;;;;;;;
2023/09/19 12:13:53;;;;;;;4.00;2.00;;;;;;;22.65;57.45;99780.41;133113;1304;22272;-73
2023/09/19 12:17:03;;;;;;;2.00;1.20;;;;;;;22.62;57.96;99776.23;133166;1303;22285;-71
2023/09/19 12:20:14;;;;;;;3.20;1.40;;;;;;;22.63;58.12;99772.67;133201;1303;22413;-73
2023/09/19 12:23:18;;;;;;;1.60;1.50;;;;;;;22.69;57.34;99771.05;133207;1303;22900;-73
2023/09/19 12:26:43;;;;;;;2.00;1.30;;;;;;;22.65;57.63;99774.41;133199;1303;22410;-75
2023/09/19 12:30:26;;;;;;;;;;;;;;;;;;;;;
2023/09/19 12:33:50;;;;;;;3.40;1.30;;;;;;;22.58;57.82;99780.56;133127;1304;22436;-73
2023/09/19 12:37:40;;;;;;;;;;;;;;;;;;;;;
2023/09/19 12:40:47;;;;;;;3.50;1.40;;;;;;;22.26;56.48;99780.57;133116;1303;23154;-74
2023/09/19 12:44:43;;;;;;;3.30;1.50;;;;;;;22.35;56.92;99777.11;133177;1303;22238;-71
2023/09/19 12:48:37;;;;;;;3.80;1.60;;;;;;;22.57;57.38;99771.03;132999;1303;22523;-71
2023/09/19 12:51:49;;;;;;;2.10;1.50;;;;;;;22.75;57.33;99777.60;133210;1303;22410;-76
2023/09/19 12:54:51;;;;;;;3.50;1.40;;;;;;;22.94;55.96;99775.05;133189;1303;22271;-72
2023/09/19 12:58:23;;;;;;;;;;;;;;;;;;;;;
2023/09/19 13:01:36;;;;;;;1.30;1.20;;;;;;;22.67;55.37;99778.71;133186;1303;22573;-74
2023/09/19 13:05:06;;;;;;;;;;;;;;;22.79;55.04;99776.45;133203;1304;22505;-75
2023/09/19 13:08:54;;;;;;;3.40;2.00;;;;;;;23.02;55.25;99775.66;133189;1300;22424;-73
2023/09/19 13:11:58;;;;;;;2.40;1.60;;;;;;;23.30;54.46;99775.02;132998;1304;22518;-72
2023/09/19 13:15:20;;;;;;;1.80;1.40;;;;;;;23.39;53.33;99767.58;133172;1310;22436;-72
2023/09/19 13:18:45;;;;;;;3.60;1.60;;;;;;;23.42;52.91;99763.80;133185;1304;23024;-71
2023/09/19 13:22:48;;;;;;;2.70;1.70;;;;;;;23.45;51.78;99755.48;133019;1301;22403;-71
2023/09/19 13:25:52;;;;;;;2.60;1.80;;;;;;;23.49;51.07;99749.35;133185;1307;22245;-73
2023/09/19 13:29:17;;;;;;;2.50;1.80;;;;;;;23.53;51.28;99744.71;133195;1306;22435;-72
2023/09/19 13:32:33;;;;;;;5.10;1.50;;;;;;;23.60;50.97;99745.13;133179;1303;22251;-71
2023/09/19 13:35:42;;;;;;;1.60;1.40;;;;;;;23.67;50.80;99740.41;133087;1307;22277;-72
2023/09/19 13:39:17;;;;;;;3.80;1.70;;;;;;;23.73;50.44;99738.36;132875;1311;22326;-73
2023/09/19 13:42:31;;;;;;;3.60;1.50;;;;;;;23.68;49.99;99738.70;132969;1310;23099;-75
2023/09/19 13:45:44;;;;;;;1.60;1.50;;;;;;;23.62;49.91;99736.32;133148;1310;22497;-74
2023/09/19 13:49:17;;;;;;;2.50;1.50;;;;;;;23.59;49.61;99737.44;133138;1305;22593;-72
2023/09/19 13:52:24;;;;;;;3.30;1.60;;;;;;;23.53;49.43;99735.78;133125;1304;22403;-71
2023/09/19 13:55:28;;;;;;;2.10;1.60;;;;;;;23.44;49.62;99734.42;132981;1304;22706;-72
2023/09/19 13:58:35;;;;;;;1.20;1.20;;;;;;;23.37;49.07;99731.34;133144;1304;22415;-72
2023/09/19 14:01:57;;;;;;;;;;;;;;;;;;;;;
2023/09/19 14:10:12;;;;;;;;;;;;;;;;;;;;;
2023/09/19 14:14:13;;;;;;;1.90;1.40;;;;;;;22.93;47.43;99732.14;133122;1304;23186;-83
2023/09/19 14:18:12;;;;;;;1.60;1.30;;;;;;;22.79;47.70;99733.55;133197;1305;22559;-80
2023/09/19 14:22:07;;;;;;;;;;;;;;;;;;;;;
2023/09/19 14:29:57;;;;;;;3.20;1.70;;;;;;;22.64;49.15;99737.46;132971;1307;22409;-81
2023/09/19 14:37:46;;;;;;;3.40;1.60;;;;;;;22.60;49.44;99741.65;133207;1307;23002;-80
2023/09/19 14:41:17;;;;;;;2.40;1.50;;;;;;;22.51;49.39;99737.83;133118;1304;22381;-78
2023/09/19 14:48:22;;;;;;;;;;;;;;;;;;;;;
2023/09/19 14:51:43;;;;;;;;;;;;;;;;;;;;;
2023/09/19 14:58:49;;;;;;;3.40;2.50;;;;;;;21.92;49.97;99749.91;133206;1305;23178;-80
2023/09/19 15:01:53;;;;;;;7.90;4.80;;;;;;;21.80;50.33;99748.62;133234;1305;22448;-81
2023/09/19 15:04:57;;;;;;;5.70;4.30;;;;;;;21.72;50.32;99742.73;133194;1304;23088;-80
2023/09/19 15:08:40;;;;;;;8.90;7.20;;;;;;;21.69;50.97;99743.77;133262;1304;22231;-79
2023/09/19 15:11:41;;;;;;;8.10;5.30;;;;;;;21.70;51.16;99741.20;133206;1303;23161;-79
2023/09/19 15:14:43;;;;;;;6.00;4.80;;;;;;;21.67;51.22;99742.17;133244;1309;24523;-81
2023/09/19 15:17:51;;;;;;;4.00;3.30;;;;;;;21.66;51.41;99743.19;133102;1307;22523;-79
2023/09/19 15:20:55;;;;;;;8.70;3.80;;;;;;;21.61;51.54;99746.13;133245;1303;22182;-78
2023/09/19 15:24:40;;;;;;;9.10;4.60;;;;;;;21.51;52.01;99747.13;133199;1306;25445;-78
2023/09/19 15:27:45;;;;;;;4.90;2.80;;;;;;;21.41;52.21;99751.04;133266;1307;22287;-79
2023/09/19 15:30:52;;;;;;;4.20;1.90;;;;;;;21.34;52.39;99753.33;133249;1299;22416;-81
2023/09/19 15:33:55;;;;;;;3.20;1.90;;;;;;;21.25;52.82;99756.20;133214;1304;23368;-83
2023/09/19 15:41:31;;;;;;;;;;;;;;;;;;;;;
2023/09/19 15:44:33;;;;;;;2.40;1.60;;;;;;;20.87;53.56;99759.95;133284;1303;22947;-79
2023/09/19 15:47:57;;;;;;;4.60;2.10;;;;;;;20.75;53.92;99759.41;133051;1307;22444;-85
2023/09/19 15:52:09;;;;;;;4.00;1.80;;;;;;;20.64;54.24;99762.98;133237;1304;22269;-82
2023/09/19 15:55:06;;;;;;;2.70;1.90;;;;;;;20.59;54.55;99763.17;133019;1304;22309;-79
2023/09/19 15:58:11;;;;;;;7.80;2.60;;;;;;;20.57;54.83;99766.52;133056;1310;22816;-77
2023/09/19 16:05:25;;;;;;;2.60;1.70;;;;;;;20.51;55.26;99771.61;133238;1307;22397;-80
2023/09/19 16:08:56;;;;;;;1.70;1.50;;;;;;;20.44;55.52;99774.22;133205;1303;22482;-82
2023/09/19 16:12:05;;;;;;;3.20;1.80;;;;;;;20.41;55.80;99776.48;133258;1303;23219;-77
2023/09/19 16:15:51;;;;;;;5.10;2.30;;;;;;;20.38;55.92;99781.27;133269;1297;23091;-81
2023/09/19 16:23:30;;;;;;;7.30;3.80;;;;;;;20.29;56.31;99789.23;133163;1304;23191;-79
2023/09/19 16:26:50;;;;;;;12.10;4.40;;;;;;;20.23;56.54;99791.63;133243;1302;22398;-80
2023/09/19 16:30:38;;;;;;;13.10;6.10;;;;;;;20.13;56.75;99792.13;133337;1303;22496;-80
2023/09/19 16:34:14;;;;;;;13.30;5.60;;;;;;;20.04;57.37;99792.42;133144;1304;22290;-79
2023/09/19 16:37:20;;;;;;;8.20;4.30;;;;;;;19.95;57.89;99792.17;133403;1303;22412;-79
2023/09/19 16:40:52;;;;;;;;;;;;;;;;;;;;;
2023/09/19 16:47:52;;;;;;;9.20;4.30;;;;;;;19.64;59.41;99800.02;133190;1305;22861;-77
2023/09/19 16:51:11;;;;;;;9.20;3.70;;;;;;;19.44;59.76;99803.73;133146;1307;22492;-77
2023/09/19 16:54:17;;;;;;;7.70;3.10;;;;;;;19.26;60.14;99806.58;132975;1307;22521;-79
2023/09/19 17:01:47;;;;;;;6.20;4.10;;;;;;;18.96;61.42;99817.11;132982;1305;22513;-79
2023/09/19 17:04:59;;;;;;;8.00;3.60;;;;;;;18.84;61.86;99810.45;133047;1304;22466;-79
2023/09/19 17:08:21;;;;;;;8.50;4.50;;;;;;;18.72;62.33;99814.30;133114;1304;22377;-79
2023/09/19 17:11:58;;;;;;;;;;;;;;;;;;;;;
2023/09/19 17:15:09;;;;;;;12.30;8.80;;;;;;;18.49;63.08;99817.41;133085;1310;22268;-77
2023/09/19 17:18:19;;;;;;;9.40;6.70;;;;;;;18.33;63.43;99821.59;132998;1304;22416;-78
2023/09/19 17:21:35;;;;;;;20.30;15.30;;;;;;;18.13;63.87;99829.52;132946;1306;22403;-80
2023/09/19 17:24:36;;;;;;;18.60;14.10;;;;;;;17.97;64.46;99834.23;133085;1303;22454;-80
2023/09/19 17:27:40;;;;;;;20.00;15.30;;;;;;;17.81;64.92;99831.59;133083;1305;22445;-78
2023/09/19 17:30:47;;;;;;;23.80;18.00;;;;;;;17.70;65.37;99832.83;132954;1304;23198;-80
2023/09/19 17:34:22;;;;;;;30.90;21.60;;;;;;;17.59;65.61;99835.38;133128;1304;22405;-78
2023/09/19 17:37:55;;;;;;;29.90;19.70;;;;;;;17.45;66.01;99838.41;133094;1307;22482;-77
2023/09/19 17:41:16;;;;;;;27.30;20.20;;;;;;;17.31;66.59;99851.51;133405;1304;23202;-81
2023/09/19 17:44:34;;;;;;;22.60;16.50;;;;;;;17.15;66.78;99849.52;133451;1303;22221;-82
2023/09/19 17:47:46;;;;;;;28.50;14.60;;;;;;;17.04;67.15;99852.25;133328;1303;22514;-80
2023/09/19 17:51:07;;;;;;;21.30;14.30;;;;;;;16.93;67.40;99853.06;133240;1303;22720;-86
2023/09/19 17:54:13;;;;;;;20.90;13.00;;;;;;;16.85;67.60;99853.44;133062;1305;22458;-78
2023/09/19 17:57:19;;;;;;;26.90;12.40;;;;;;;16.77;67.72;99861.10;133257;1304;23313;-79
2023/09/19 18:00:23;;;;;;;14.50;10.50;;;;;;;16.66;67.94;99863.64;133274;1303;22355;-79
2023/09/19 18:03:44;;;;;;;10.20;7.30;;;;;;;16.52;68.57;99871.40;133256;1303;22484;-79
2023/09/19 18:07:11;;;;;;;11.70;8.60;;;;;;;16.40;68.84;99877.58;133255;1303;22397;-85
2023/09/19 18:10:30;;;;;;;;;;;;;;;;;;;;;
2023/09/19 18:14:17;;;;;;;7.90;5.10;;;;;;;16.19;69.12;99878.41;133257;1300;22387;-79
2023/09/19 18:17:36;;;;;;;8.90;6.90;;;;;;;16.13;69.47;99881.05;133243;1306;22344;-79
2023/09/19 18:20:42;;;;;;;9.60;6.80;;;;;;;16.06;69.55;99880.48;133081;1307;22390;-79
2023/09/19 18:24:26;;;;;;;16.90;9.40;;;;;;;15.99;69.67;99889.77;133234;1304;22257;-78
2023/09/19 18:27:53;;;;;;;;;;;;;;;;;;;;;
2023/09/19 18:31:15;;;;;;;;;;;;;;;;;;;;;
2023/09/19 18:34:16;;;;;;;13.70;8.50;;;;;;;15.71;70.47;99894.67;133083;1303;22420;-80
2023/09/19 18:37:17;;;;;;;30.60;17.50;;;;;;;15.65;70.83;99893.54;133212;1303;22463;-79
2023/09/19 18:40:21;;;;;;;31.00;17.10;;;;;;;15.60;71.27;99894.27;133136;1298;22961;-83
2023/09/19 18:43:21;;;;;;;32.70;18.00;;;;;;;15.55;71.47;99898.46;133040;1304;22580;-79
2023/09/19 18:46:26;;;;;;;39.90;20.10;;;;;;;15.50;71.56;99898.91;133026;1304;22461;-82
2023/09/19 18:49:31;;;;;;;32.40;15.90;;;;;;;15.45;71.71;99898.79;133247;1303;22235;-80
2023/09/19 18:52:39;;;;;;;28.10;12.90;;;;;;;15.38;71.97;99899.14;133071;1303;287504;-80
2023/09/19 18:55:50;;;;;;;;;;;;;;;;;;;;;
2023/09/19 18:59:10;;;;;;;;;;;;;;;;;;;;;
2023/09/19 19:02:35;;;;;;;;;;;;;;;;;;;;;
2023/09/19 19:05:56;;;;;;;11.60;4.50;;;;;;;15.25;73.13;99909.02;133258;1303;22382;-79
2023/09/19 19:08:59;;;;;;;13.30;6.80;;;;;;;15.22;73.37;99905.27;133221;1303;22440;-81
2023/09/19 19:12:06;;;;;;;9.40;5.10;;;;;;;15.19;73.57;99903.49;133232;1303;22262;-81
2023/09/19 19:15:24;;;;;;;;;;;;;;;;;;;;;
2023/09/19 19:19:10;;;;;;;7.20;3.70;;;;;;;15.13;73.51;99911.92;133058;1303;22418;-81
2023/09/19 19:22:20;;;;;;;4.90;2.50;;;;;;;15.10;73.88;99914.91;133225;1303;23274;-80
2023/09/19 19:26:04;;;;;;;;;;;;;;;;;;;;;
2023/09/19 19:29:31;;;;;;;;;;;;;;;;;;;;;
2023/09/19 19:32:52;;;;;;;8.00;3.40;;;;;;;14.98;73.87;99915.81;133249;1303;22512;-81
2023/09/19 19:36:16;;;;;;;;;;;;;;;;;;;;;